Time;durP1;ratioP1;P1;durP2;ratioP2;P2;SDS_P1;SDS_P2;PMS_P1;PMS_P2;Temp;Humidity;BMP_temperature;BMP_pressure;BME280_temperature;BME280_humidity;BME280_pressure;Samples;Min_cycle;Max_cycle;Signal;HPM_P1;HPM_P2
2022/03/26 00:01:48;;;;;;;31.77;19.40;;;9.20;90.00;;;;;;5112628;28;20032;-63
2022/03/26 00:04:14;;;;;;;34.58;18.85;;;9.20;89.90;;;;;;5112062;28;20497;-62
2022/03/26 00:06:39;;;;;;;37.90;19.90;;;9.20;89.60;;;;;;5112398;28;20114;-63
2022/03/26 00:09:05;;;;;;;30.45;18.15;;;9.10;90.00;;;;;;5111925;28;20216;-63
2022/03/26 00:11:31;;;;;;;34.75;18.40;;;9.10;90.20;;;;;;5093382;28;20139;-63
2022/03/26 00:13:56;;;;;;;38.65;20.10;;;9.00;90.40;;;;;;5112151;28;20125;-63
2022/03/26 00:16:22;;;;;;;36.17;20.48;;;9.10;90.40;;;;;;5093513;28;20640;-62
2022/03/26 00:18:47;;;;;;;36.85;19.52;;;9.10;90.50;;;;;;5111580;28;20031;-63
2022/03/26 00:21:13;;;;;;;34.47;20.52;;;9.00;90.60;;;;;;5111903;28;20127;-63
2022/03/26 00:23:39;;;;;;;43.47;19.27;;;9.00;90.80;;;;;;5093499;28;20135;-63
2022/03/26 00:26:05;;;;;;;31.80;18.67;;;9.00;91.00;;;;;;5111917;28;20027;-64
2022/03/26 00:28:31;;;;;;;32.60;18.80;;;8.90;91.20;;;;;;5111767;28;20578;-64
2022/03/26 00:30:57;;;;;;;33.50;19.33;;;8.80;91.40;;;;;;5111452;28;20027;-64
2022/03/26 00:33:25;;;;;;;34.40;17.67;;;8.70;91.60;;;;;;5111499;28;20015;-63
2022/03/26 00:35:50;;;;;;;36.17;19.08;;;8.70;91.80;;;;;;5111233;28;20023;-63
2022/03/26 00:38:16;;;;;;;37.22;20.25;;;8.60;91.90;;;;;;5111779;28;20028;-64
2022/03/26 00:40:42;;;;;;;33.13;17.88;;;8.60;92.00;;;;;;5111447;28;20018;-62
2022/03/26 00:43:07;;;;;;;41.95;21.80;;;8.50;92.20;;;;;;5093322;28;20029;-64
2022/03/26 00:45:34;;;;;;;36.95;20.08;;;8.50;92.60;;;;;;5111415;28;20160;-63
2022/03/26 00:48:01;;;;;;;34.15;19.90;;;8.50;92.70;;;;;;5093222;28;20038;-63
2022/03/26 00:50:27;;;;;;;42.03;19.23;;;8.40;92.90;;;;;;5111264;28;20020;-64
2022/03/26 00:52:53;;;;;;;34.88;19.30;;;8.40;93.20;;;;;;5095882;28;20024;-67
2022/03/26 00:55:19;;;;;;;37.42;18.85;;;8.40;93.30;;;;;;5092699;28;20020;-65
2022/03/26 00:57:45;;;;;;;33.28;19.05;;;8.40;93.50;;;;;;5093807;28;20442;-66
2022/03/26 01:00:12;;;;;;;34.53;19.60;;;8.40;93.70;;;;;;5094031;28;20032;-65
2022/03/26 01:02:37;;;;;;;41.78;21.77;;;8.40;93.80;;;;;;5094191;28;20561;-63
2022/03/26 01:05:04;;;;;;;34.40;19.42;;;8.40;94.00;;;;;;5093773;28;20059;-66
2022/03/26 01:07:30;;;;;;;33.38;18.40;;;8.40;94.40;;;;;;5075623;28;20032;-65
2022/03/26 01:09:56;;;;;;;36.13;22.08;;;8.30;94.20;;;;;;5074543;28;20058;-66
2022/03/26 01:12:23;;;;;;;36.70;18.52;;;8.30;94.50;;;;;;5093872;28;20027;-65
2022/03/26 01:14:50;;;;;;;41.53;19.73;;;8.30;94.60;;;;;;5093502;28;20024;-65
2022/03/26 01:17:15;;;;;;;35.83;19.65;;;8.30;94.60;;;;;;5075142;28;20024;-65
2022/03/26 01:19:41;;;;;;;36.47;20.30;;;8.30;94.90;;;;;;5075312;28;20024;-66
2022/03/26 01:22:07;;;;;;;36.65;19.55;;;8.20;95.10;;;;;;5093561;28;20024;-65
2022/03/26 01:24:33;;;;;;;32.97;18.40;;;8.20;95.40;;;;;;5093263;28;20103;-65
2022/03/26 01:26:59;;;;;;;36.95;19.17;;;8.10;95.80;;;;;;5093389;28;20050;-66
2022/03/26 01:29:25;;;;;;;33.95;19.15;;;8.10;95.90;;;;;;5093312;28;20027;-65
2022/03/26 01:31:51;;;;;;;35.50;18.08;;;8.10;96.00;;;;;;5093508;28;20024;-67
2022/03/26 01:34:16;;;;;;;32.65;17.73;;;8.00;96.30;;;;;;5075199;28;20142;-65
2022/03/26 01:36:42;;;;;;;37.28;18.70;;;7.90;96.70;;;;;;5093776;28;20047;-65
2022/03/26 01:39:08;;;;;;;32.72;17.17;;;7.90;97.00;;;;;;5093561;28;20024;-65
2022/03/26 01:41:34;;;;;;;31.63;17.15;;;7.90;97.20;;;;;;5093308;28;20082;-65
2022/03/26 01:44:00;;;;;;;29.80;17.42;;;7.90;97.30;;;;;;5092992;28;20431;-65
2022/03/26 01:46:26;;;;;;;44.22;21.42;;;7.90;97.50;;;;;;5093271;28;20073;-65
2022/03/26 01:48:52;;;;;;;76.13;48.50;;;7.90;97.70;;;;;;5074543;28;20030;-64
2022/03/26 01:51:19;;;;;;;34.30;20.25;;;8.00;99.00;;;;;;5093230;28;20027;-65
2022/03/26 01:53:51;;;;;;;39.80;20.75;;;8.10;97.80;;;;;;5092944;28;20031;-65
2022/03/26 01:56:18;;;;;;;41.15;23.98;;;8.10;98.20;;;;;;5093014;28;20476;-65
2022/03/26 01:58:44;;;;;;;31.17;18.08;;;8.10;98.00;;;;;;5093178;28;20062;-64
2022/03/26 02:01:10;;;;;;;33.88;17.58;;;8.10;97.90;;;;;;5074178;28;20112;-64
2022/03/26 02:03:36;;;;;;;31.70;16.58;;;8.10;97.90;;;;;;5092816;28;20044;-66
2022/03/26 02:06:02;;;;;;;33.10;18.63;;;8.20;97.80;;;;;;5092663;28;20064;-64
2022/03/26 02:08:28;;;;;;;37.10;19.88;;;8.10;98.00;;;;;;5074630;28;20381;-64
2022/03/26 02:10:54;;;;;;;33.08;18.60;;;8.10;98.10;;;;;;5093031;28;20020;-65
2022/03/26 02:13:20;;;;;;;35.95;17.88;;;8.10;98.20;;;;;;5092954;28;20020;-66
2022/03/26 02:15:45;;;;;;;36.17;18.40;;;8.00;98.50;;;;;;5092841;28;20035;-66
2022/03/26 02:18:11;;;;;;;30.85;16.60;;;8.00;98.60;;;;;;5093052;28;20085;-66
2022/03/26 02:20:37;;;;;;;33.78;19.02;;;7.90;98.80;;;;;;5093902;28;20024;-64
2022/03/26 02:23:03;;;;;;;37.50;18.35;;;7.90;99.00;;;;;;5081710;28;20020;-65
2022/03/26 02:25:29;;;;;;;33.67;18.70;;;7.80;99.10;;;;;;5099725;28;20030;-65
2022/03/26 02:27:54;;;;;;;35.97;19.83;;;7.70;99.80;;;;;;5099464;28;20020;-65
2022/03/26 02:30:21;;;;;;;34.35;18.02;;;7.70;99.90;;;;;;5099218;28;20020;-66
2022/03/26 02:32:47;;;;;;;34.90;18.25;;;7.70;99.90;;;;;;5099619;28;20031;-63
2022/03/26 02:35:13;;;;;;;33.30;17.88;;;7.70;99.90;;;;;;5099305;28;20024;-62
2022/03/26 02:37:40;;;;;;;32.60;17.20;;;7.70;99.90;;;;;;5098927;28;20024;-65
2022/03/26 02:40:07;;;;;;;35.50;17.70;;;7.60;99.90;;;;;;5081029;28;20605;-64
2022/03/26 02:42:34;;;;;;;29.57;17.33;;;7.50;99.90;;;;;;5098867;28;20093;-65
2022/03/26 02:45:00;;;;;;;33.50;18.42;;;7.40;99.90;;;;;;5098879;28;20277;-64
2022/03/26 02:47:26;;;;;;;32.80;18.02;;;7.30;99.90;;;;;;5099096;28;20027;-66
2022/03/26 02:49:52;;;;;;;34.53;17.33;;;7.30;99.90;;;;;;5098923;28;20036;-65
2022/03/26 02:52:17;;;;;;;34.00;18.52;;;7.30;99.90;;;;;;5099182;28;20019;-66
2022/03/26 02:54:43;;;;;;;31.27;16.52;;;7.30;99.90;;;;;;5080823;28;20558;-64
2022/03/26 02:57:09;;;;;;;34.72;19.17;;;7.20;99.90;;;;;;5080813;28;20031;-65
2022/03/26 02:59:35;;;;;;;35.72;18.25;;;7.10;99.90;;;;;;5099137;28;20024;-65
2022/03/26 03:02:01;;;;;;;40.50;19.08;;;7.10;99.90;;;;;;5098949;28;20032;-63
2022/03/26 03:04:27;;;;;;;35.38;18.40;;;7.10;99.90;;;;;;5098779;28;20035;-66
2022/03/26 03:06:53;;;;;;;35.40;18.15;;;7.00;99.90;;;;;;5099515;28;20073;-66
2022/03/26 03:09:18;;;;;;;34.42;17.38;;;6.90;99.90;;;;;;5098985;28;20028;-64
2022/03/26 03:11:44;;;;;;;36.33;17.48;;;7.00;99.90;;;;;;5099187;28;20023;-64
2022/03/26 03:14:10;;;;;;;33.65;17.23;;;6.90;99.90;;;;;;5098747;28;20073;-63
2022/03/26 03:16:37;;;;;;;38.08;18.80;;;6.90;99.90;;;;;;5098807;28;20074;-66
2022/03/26 03:19:05;;;;;;;39.55;20.15;;;6.70;99.90;;;;;;5080565;28;20028;-63
2022/03/26 03:21:32;;;;;;;35.40;18.48;;;6.70;99.90;;;;;;5099140;28;20089;-67
2022/03/26 03:23:57;;;;;;;37.67;19.08;;;6.60;99.90;;;;;;5080469;28;20028;-64
2022/03/26 03:26:23;;;;;;;35.45;18.05;;;6.60;99.90;;;;;;5098637;28;20032;-65
2022/03/26 03:28:49;;;;;;;35.53;18.27;;;6.60;99.90;;;;;;5098685;28;20020;-63
2022/03/26 03:31:14;;;;;;;36.90;19.30;;;6.50;99.90;;;;;;5098818;28;20116;-64
2022/03/26 03:33:40;;;;;;;37.35;18.90;;;6.40;99.90;;;;;;5095335;28;20020;-65
2022/03/26 03:36:06;;;;;;;38.67;20.02;;;6.30;99.90;;;;;;5095443;28;20523;-64
2022/03/26 03:38:32;;;;;;;40.55;18.73;;;6.20;99.90;;;;;;5077667;28;20028;-64
2022/03/26 03:40:58;;;;;;;33.28;17.88;;;6.20;99.90;;;;;;5077428;28;20111;-64
2022/03/26 03:43:24;;;;;;;36.28;18.42;;;6.20;99.90;;;;;;5095523;28;20020;-64
2022/03/26 03:45:50;;;;;;;34.85;17.85;;;6.20;99.90;;;;;;5095650;28;20028;-63
2022/03/26 03:48:16;;;;;;;33.10;18.38;;;6.30;99.90;;;;;;5095568;28;20020;-63
2022/03/26 03:50:42;;;;;;;35.00;17.35;;;6.30;99.90;;;;;;5095511;28;20456;-63
2022/03/26 03:53:08;;;;;;;35.15;17.45;;;6.30;99.90;;;;;;5095648;28;20031;-63
2022/03/26 03:55:33;;;;;;;38.90;18.00;;;6.40;99.90;;;;;;5095324;28;20103;-65
2022/03/26 03:57:59;;;;;;;35.05;17.83;;;6.40;99.90;;;;;;5077093;28;20496;-64
2022/03/26 04:00:25;;;;;;;37.72;17.85;;;6.40;99.90;;;;;;5095033;28;20085;-64
2022/03/26 04:02:50;;;;;;;36.92;17.98;;;6.50;99.90;;;;;;5095047;28;20039;-64
2022/03/26 04:05:16;;;;;;;36.72;20.85;;;6.40;99.90;;;;;;5095040;28;20055;-63
2022/03/26 04:07:43;;;;;;;32.40;18.48;;;6.40;99.90;;;;;;5094691;28;20024;-63
2022/03/26 04:10:09;;;;;;;36.97;19.13;;;6.40;99.90;;;;;;5094502;28;20472;-63
2022/03/26 04:12:37;;;;;;;33.70;17.90;;;6.40;99.90;;;;;;5094792;28;20039;-65
2022/03/26 04:15:04;;;;;;;36.92;19.98;;;6.40;99.90;;;;;;5094544;28;20527;-63
2022/03/26 04:17:30;;;;;;;31.80;17.65;;;6.40;99.90;;;;;;5095005;28;20077;-63
2022/03/26 04:19:56;;;;;;;37.70;19.48;;;6.30;99.90;;;;;;5094838;28;20075;-63
2022/03/26 04:22:21;;;;;;;35.03;20.13;;;6.40;99.90;;;;;;5094731;28;20024;-64
2022/03/26 04:24:47;;;;;;;35.72;17.83;;;6.40;99.90;;;;;;5076329;28;20490;-64
2022/03/26 04:27:13;;;;;;;37.97;19.85;;;6.40;99.90;;;;;;5094534;28;20031;-65
2022/03/26 04:29:39;;;;;;;36.97;18.83;;;6.40;99.90;;;;;;5094268;28;20032;-65
2022/03/26 04:32:05;;;;;;;32.25;16.98;;;6.40;99.90;;;;;;5094516;28;20422;-64
2022/03/26 04:34:30;;;;;;;34.33;18.85;;;6.30;99.90;;;;;;5094509;28;20044;-64
2022/03/26 04:36:56;;;;;;;37.88;19.50;;;6.30;99.90;;;;;;5094574;28;20488;-66
2022/03/26 04:39:22;;;;;;;34.78;18.65;;;6.20;99.90;;;;;;5094072;28;20032;-64
2022/03/26 04:41:48;;;;;;;38.65;19.52;;;6.20;99.90;;;;;;5094426;28;20054;-65
2022/03/26 04:44:14;;;;;;;36.65;20.85;;;6.20;99.90;;;;;;5092739;28;20032;-65
2022/03/26 04:46:40;;;;;;;40.20;19.40;;;6.20;99.90;;;;;;5094271;28;20024;-64
2022/03/26 04:49:06;;;;;;;43.13;18.77;;;6.20;99.90;;;;;;5093728;28;20392;-65
2022/03/26 04:51:31;;;;;;;37.53;18.80;;;6.30;99.90;;;;;;5094456;28;20012;-64
2022/03/26 04:53:57;;;;;;;39.40;19.80;;;6.30;99.90;;;;;;5094030;28;20505;-64
2022/03/26 04:56:23;;;;;;;36.40;18.95;;;6.20;99.90;;;;;;5094139;28;20044;-64
2022/03/26 04:58:48;;;;;;;36.13;19.20;;;6.20;99.90;;;;;;5093660;28;20024;-63
2022/03/26 05:01:15;;;;;;;38.20;19.75;;;6.10;99.90;;;;;;5094397;28;20078;-63
2022/03/26 05:03:44;;;;;;;32.88;18.40;;;6.10;99.90;;;;;;5093894;28;20058;-65
2022/03/26 05:06:09;;;;;;;;;;;6.00;99.90;;;;;;5094334;28;20032;-64
2022/03/26 05:08:35;;;;;;;39.03;21.13;;;5.90;99.90;;;;;;5093728;28;20510;-65
2022/03/26 05:11:00;;;;;;;37.33;19.23;;;5.80;99.90;;;;;;5075394;28;20024;-64
2022/03/26 05:13:26;;;;;;;33.35;18.83;;;5.80;99.90;;;;;;5093436;28;20070;-65
2022/03/26 05:15:52;;;;;;;36.13;19.48;;;5.80;99.90;;;;;;5093632;28;20024;-64
2022/03/26 05:18:17;;;;;;;37.70;20.10;;;5.80;99.90;;;;;;5093580;28;20020;-64
2022/03/26 05:20:44;;;;;;;40.75;20.33;;;5.80;99.90;;;;;;5093445;28;20032;-64
2022/03/26 05:23:09;;;;;;;43.50;20.40;;;5.80;99.90;;;;;;5093684;28;20031;-64
2022/03/26 05:25:35;;;;;;;39.95;19.35;;;5.70;99.90;;;;;;5093624;28;20028;-65
2022/03/26 05:28:01;;;;;;;36.92;19.88;;;5.70;99.90;;;;;;5093263;28;20027;-63
2022/03/26 05:30:27;;;;;;;37.67;19.48;;;5.70;99.90;;;;;;5074902;28;20112;-65
2022/03/26 05:32:53;;;;;;;40.97;19.73;;;5.70;99.90;;;;;;5093391;28;20043;-64
2022/03/26 05:35:19;;;;;;;43.97;22.38;;;5.80;99.90;;;;;;5093545;28;20495;-64
2022/03/26 05:37:45;;;;;;;37.30;19.83;;;5.80;99.90;;;;;;5093321;28;20016;-64
2022/03/26 05:40:13;;;;;;;37.17;22.02;;;5.80;99.90;;;;;;5075104;28;20059;-65
2022/03/26 05:42:39;;;;;;;44.33;22.83;;;5.80;99.90;;;;;;5093014;28;20073;-63
2022/03/26 05:45:06;;;;;;;39.80;21.80;;;5.80;99.90;;;;;;5092926;28;20024;-63
2022/03/26 05:47:33;;;;;;;46.63;23.08;;;5.80;99.90;;;;;;5093377;28;20369;-65
2022/03/26 05:49:59;;;;;;;36.45;19.90;;;5.80;99.90;;;;;;5074958;28;20396;-64
2022/03/26 05:52:25;;;;;;;39.50;21.13;;;5.90;99.90;;;;;;5093051;28;20024;-64
2022/03/26 05:54:50;;;;;;;42.88;22.50;;;6.00;99.90;;;;;;5075085;28;20073;-64
2022/03/26 05:57:18;;;;;;;38.20;19.50;;;6.10;99.90;;;;;;5092723;28;20487;-64
2022/03/26 05:59:44;;;;;;;42.47;23.67;;;6.20;99.90;;;;;;5092301;28;20449;-64
2022/03/26 06:02:12;;;;;;;38.85;22.20;;;6.30;99.90;;;;;;5093423;28;20058;-64
2022/03/26 06:04:37;;;;;;;41.08;22.05;;;6.30;99.90;;;;;;5093079;28;20468;-65
2022/03/26 06:07:03;;;;;;;42.17;23.23;;;6.30;99.90;;;;;;5093181;28;20057;-65
2022/03/26 06:09:29;;;;;;;37.38;21.67;;;6.40;99.90;;;;;;5093023;28;20028;-65
2022/03/26 06:11:55;;;;;;;40.85;21.52;;;6.50;99.90;;;;;;5092760;28;20101;-65
2022/03/26 06:14:21;;;;;;;39.33;22.08;;;6.60;99.90;;;;;;5092339;28;20031;-65
2022/03/26 06:16:47;;;;;;;43.42;23.50;;;6.70;99.90;;;;;;5092806;28;20024;-65
2022/03/26 06:19:13;;;;;;;43.30;22.70;;;6.70;99.90;;;;;;5092536;28;20099;-66
2022/03/26 06:21:39;;;;;;;43.20;22.25;;;6.80;99.90;;;;;;5074753;28;20386;-65
2022/03/26 06:24:05;;;;;;;40.38;22.67;;;6.90;99.90;;;;;;5092694;28;20111;-66
2022/03/26 06:26:31;;;;;;;44.33;23.85;;;7.00;99.90;;;;;;5074464;28;20028;-65
2022/03/26 06:28:57;;;;;;;42.60;22.90;;;7.10;99.90;;;;;;5092398;28;20028;-65
2022/03/26 06:31:22;;;;;;;44.67;23.52;;;7.20;99.90;;;;;;5074482;28;20556;-66
2022/03/26 06:33:48;;;;;;;41.38;22.13;;;7.30;99.90;;;;;;5092676;28;20047;-64
2022/03/26 06:36:15;;;;;;;41.03;22.02;;;7.30;99.90;;;;;;5092702;28;20103;-65
2022/03/26 06:38:41;;;;;;;45.30;22.52;;;7.40;99.90;;;;;;5092670;28;20079;-66
2022/03/26 06:41:09;;;;;;;40.38;21.92;;;7.40;99.90;;;;;;5076579;28;20103;-63
2022/03/26 06:43:36;;;;;;;39.75;22.17;;;7.50;99.90;;;;;;5122232;28;20019;-64
2022/03/26 06:46:03;;;;;;;37.15;22.35;;;7.60;99.90;;;;;;5119533;28;20024;-65
2022/03/26 06:48:29;;;;;;;36.22;20.73;;;7.60;99.90;;;;;;5113127;28;20019;-64
2022/03/26 06:50:54;;;;;;;39.33;21.52;;;7.70;99.90;;;;;;5111359;28;20490;-64
2022/03/26 06:53:20;;;;;;;43.22;21.63;;;7.80;99.90;;;;;;5134470;28;20035;-63
2022/03/26 06:55:46;;;;;;;43.72;23.67;;;7.90;99.90;;;;;;5132812;28;20015;-64
2022/03/26 06:58:11;;;;;;;41.97;23.05;;;8.00;99.90;;;;;;5126440;28;20023;-64
2022/03/26 07:00:37;;;;;;;38.38;21.48;;;8.10;99.90;;;;;;5112584;28;20024;-64
2022/03/26 07:03:03;;;;;;;41.17;23.13;;;8.20;99.90;;;;;;5112669;28;20177;-65
2022/03/26 07:05:28;;;;;;;43.55;25.50;;;8.30;99.90;;;;;;5098962;28;20090;-62
2022/03/26 07:07:54;;;;;;;38.75;21.73;;;8.40;99.90;;;;;;5082867;28;20031;-64
2022/03/26 07:10:20;;;;;;;48.53;25.20;;;8.50;99.90;;;;;;5116175;28;20535;-64
2022/03/26 07:12:46;;;;;;;47.63;25.40;;;8.60;99.90;;;;;;5116253;28;20045;-64
2022/03/26 07:15:12;;;;;;;46.05;25.33;;;8.70;99.90;;;;;;5104020;27;20149;-63
2022/03/26 07:17:39;;;;;;;42.35;23.67;;;8.80;99.90;;;;;;5137274;27;20046;-63
2022/03/26 07:20:06;;;;;;;45.58;25.40;;;8.90;99.90;;;;;;5118567;27;20027;-64
2022/03/26 07:22:31;;;;;;;43.75;23.73;;;8.90;99.90;;;;;;5118463;27;20118;-65
2022/03/26 07:24:57;;;;;;;41.78;22.92;;;9.00;99.90;;;;;;5118305;27;20055;-64
2022/03/26 07:27:22;;;;;;;39.38;22.30;;;9.10;99.90;;;;;;5136771;27;20065;-65
2022/03/26 07:29:48;;;;;;;45.40;21.48;;;9.30;99.90;;;;;;5118131;27;20027;-65
2022/03/26 07:32:15;;;;;;;42.47;24.13;;;9.30;99.90;;;;;;5136581;27;20141;-65
2022/03/26 07:34:41;;;;;;;41.13;22.02;;;9.50;99.90;;;;;;5136132;27;20467;-66
2022/03/26 07:37:06;;;;;;;44.40;23.02;;;9.60;99.90;;;;;;5136318;27;20082;-64
2022/03/26 07:39:32;;;;;;;41.63;24.67;;;9.80;99.90;;;;;;5116785;27;20506;-65
2022/03/26 07:41:58;;;;;;;42.30;24.92;;;10.00;99.90;;;;;;5127763;27;20034;-64
2022/03/26 07:44:24;;;;;;;47.65;24.05;;;10.10;99.90;;;;;;5115470;28;20104;-65
2022/03/26 07:46:49;;;;;;;44.97;25.52;;;10.20;99.90;;;;;;5115615;28;20073;-65
2022/03/26 07:49:15;;;;;;;44.83;25.75;;;10.20;99.90;;;;;;5115385;28;20099;-65
2022/03/26 07:51:41;;;;;;;44.40;24.77;;;10.40;99.90;;;;;;5097604;28;20357;-66
2022/03/26 07:54:06;;;;;;;44.20;23.38;;;10.40;99.90;;;;;;5115508;28;20028;-66
2022/03/26 07:56:32;;;;;;;46.25;25.50;;;10.60;99.90;;;;;;5115880;28;20055;-66
2022/03/26 07:58:58;;;;;;;48.60;25.90;;;10.60;99.90;;;;;;5115576;28;20077;-64
2022/03/26 08:01:24;;;;;;;42.85;24.48;;;10.70;99.90;;;;;;5115600;28;20020;-66
2022/03/26 08:03:53;;;;;;;47.28;23.33;;;10.80;99.90;;;;;;5115204;28;20091;-66
2022/03/26 08:06:23;;;;;;;50.22;26.60;;;10.90;99.90;;;;;;5115039;28;20051;-66
2022/03/26 08:08:49;;;;;;;46.95;23.90;;;10.90;99.90;;;;;;5115375;28;20023;-65
2022/03/26 08:11:15;;;;;;;47.75;26.00;;;11.00;99.80;;;;;;5115342;28;20027;-66
2022/03/26 08:13:40;;;;;;;45.55;25.70;;;11.10;99.40;;;;;;5115549;28;20463;-65
2022/03/26 08:16:08;;;;;;;52.65;26.75;;;11.20;98.80;;;;;;5106086;27;20058;-66
2022/03/26 08:18:35;;;;;;;53.42;26.58;;;11.30;98.50;;;;;;5135617;27;20140;-66
2022/03/26 08:21:00;;;;;;;49.65;27.30;;;11.40;98.30;;;;;;5135448;27;20050;-67
2022/03/26 08:23:26;;;;;;;50.40;27.63;;;11.40;98.20;;;;;;5135462;27;20375;-64
2022/03/26 08:28:36;;;;;;;47.65;28.48;;;11.50;97.70;;;;;;5135447;27;20030;-64
2022/03/26 08:31:02;;;;;;;46.03;23.85;;;11.60;97.70;;;;;;5135502;27;20023;-65
2022/03/26 08:33:28;;;;;;;43.67;25.58;;;11.80;98.20;;;;;;5135155;27;20019;-63
2022/03/26 08:35:54;;;;;;;44.05;23.52;;;11.90;96.80;;;;;;5135081;27;20102;-65
2022/03/26 08:38:20;;;;;;;49.85;26.30;;;12.00;95.90;;;;;;5134926;27;20030;-66
2022/03/26 08:40:46;;;;;;;42.60;24.08;;;12.00;95.60;;;;;;5134909;27;20051;-64
2022/03/26 08:43:13;;;;;;;41.92;23.10;;;12.10;95.00;;;;;;5128181;27;20062;-66
2022/03/26 08:45:40;;;;;;;41.03;21.73;;;12.20;94.90;;;;;;5095972;28;20042;-65
2022/03/26 08:48:06;;;;;;;40.00;25.15;;;12.40;94.60;;;;;;5114252;28;20024;-65
2022/03/26 08:50:32;;;;;;;39.55;22.23;;;12.40;95.40;;;;;;5114761;28;20031;-64
2022/03/26 08:52:59;;;;;;;33.63;21.83;;;12.40;95.30;;;;;;5114250;28;20129;-64
2022/03/26 08:55:24;;;;;;;35.65;22.13;;;12.50;95.10;;;;;;5114123;28;20024;-65
2022/03/26 08:57:50;;;;;;;34.10;19.38;;;12.60;95.60;;;;;;5114197;28;20023;-64
2022/03/26 09:00:17;;;;;;;30.95;19.50;;;12.70;95.20;;;;;;5095403;28;20035;-63
2022/03/26 09:02:44;;;;;;;33.58;20.10;;;12.70;95.40;;;;;;5113698;28;20019;-65
2022/03/26 09:05:13;;;;;;;32.72;18.88;;;12.80;95.30;;;;;;5113997;28;20024;-65
2022/03/26 09:07:39;;;;;;;32.47;19.02;;;12.90;95.30;;;;;;5114010;28;20047;-64
2022/03/26 09:10:06;;;;;;;33.45;20.48;;;13.00;95.90;;;;;;5113527;28;20027;-66
2022/03/26 09:12:32;;;;;;;31.88;20.25;;;13.00;95.60;;;;;;5113740;28;20024;-65
2022/03/26 09:14:58;;;;;;;34.28;19.13;;;13.20;95.10;;;;;;5113852;28;20020;-65
2022/03/26 09:17:24;;;;;;;39.03;21.98;;;13.30;95.80;;;;;;5113752;28;20126;-65
2022/03/26 09:19:49;;;;;;;37.50;22.30;;;13.40;95.90;;;;;;5113650;28;20019;-65
2022/03/26 09:22:15;;;;;;;42.33;23.38;;;13.50;94.10;;;;;;5113617;28;20024;-65
2022/03/26 09:24:42;;;;;;;38.58;22.95;;;13.50;94.40;;;;;;5113653;28;20033;-66
2022/03/26 09:27:08;;;;;;;40.15;22.38;;;13.50;94.30;;;;;;5113570;28;20058;-65
2022/03/26 09:29:33;;;;;;;44.58;25.52;;;13.70;94.20;;;;;;5113433;28;20100;-67
2022/03/26 09:31:59;;;;;;;40.83;25.00;;;13.80;93.70;;;;;;5112471;28;20475;-65
2022/03/26 09:34:24;;;;;;;36.75;23.65;;;14.00;93.90;;;;;;5095039;28;20076;-64
2022/03/26 09:36:50;;;;;;;35.63;23.23;;;14.00;93.20;;;;;;5113479;28;20016;-66
2022/03/26 09:39:16;;;;;;;38.60;23.33;;;14.00;93.10;;;;;;5113564;28;20111;-65
2022/03/26 09:41:43;;;;;;;36.58;22.48;;;14.00;93.00;;;;;;5113504;28;20118;-65
2022/03/26 09:44:11;;;;;;;34.67;21.33;;;14.10;93.00;;;;;;5098886;28;20060;-65
2022/03/26 09:46:36;;;;;;;34.45;21.38;;;14.10;92.90;;;;;;5074976;28;20114;-66
2022/03/26 09:49:03;;;;;;;40.67;23.15;;;14.20;92.80;;;;;;5074739;28;20115;-64
2022/03/26 09:51:29;;;;;;;35.40;21.83;;;14.20;92.70;;;;;;5104938;28;20551;-67
2022/03/26 09:53:56;;;;;;;36.58;21.23;;;14.10;92.70;;;;;;5116249;27;20111;-65
2022/03/26 09:56:23;;;;;;;37.55;21.42;;;14.30;93.10;;;;;;5118580;27;20019;-65
2022/03/26 09:58:52;;;;;;;33.50;21.20;;;14.40;92.90;;;;;;5116528;27;20031;-65
2022/03/26 10:01:19;;;;;;;32.65;20.15;;;14.50;92.60;;;;;;5113012;28;20313;-66
2022/03/26 10:04:14;;;;;;;36.50;20.27;;;14.60;92.70;;;;;;5112476;28;20601;-65
2022/03/26 10:06:50;;;;;;;30.45;19.70;;;14.80;92.20;;;;;;5112876;28;20058;-65
2022/03/26 10:09:35;;;;;;;32.80;19.52;;;14.80;91.80;;;;;;5112669;28;20023;-64
2022/03/26 10:12:18;;;;;;;38.03;21.92;;;14.90;91.90;;;;;;5073873;28;20070;-66
2022/03/26 10:14:52;;;;;;;34.13;21.77;;;14.90;91.90;;;;;;5112588;28;20023;-66
2022/03/26 10:17:22;;;;;;;35.72;20.30;;;14.90;91.80;;;;;;5112995;28;20026;-66
2022/03/26 10:19:59;;;;;;;37.90;20.88;;;15.10;91.60;;;;;;5112132;28;20047;-66
2022/03/26 10:22:33;;;;;;;32.45;19.75;;;15.20;91.40;;;;;;5112360;28;20386;-66
2022/03/26 10:25:05;;;;;;;30.90;19.92;;;15.20;91.20;;;;;;5112083;28;20089;-65
2022/03/26 10:27:48;;;;;;;32.88;19.77;;;15.20;91.40;;;;;;5112264;28;20424;-65
2022/03/26 10:30:15;;;;;;;29.60;19.00;;;15.40;90.70;;;;;;5112146;28;20099;-65
2022/03/26 10:32:49;;;;;;;30.30;18.60;;;15.50;90.70;;;;;;5112288;28;20024;-64
2022/03/26 10:35:25;;;;;;;30.02;16.85;;;15.50;90.40;;;;;;5093390;28;20080;-66
2022/03/26 10:37:58;;;;;;;27.38;16.05;;;15.50;89.90;;;;;;5112166;28;20417;-63
2022/03/26 10:40:29;;;;;;;28.13;18.23;;;15.80;90.10;;;;;;5093829;28;20051;-64
2022/03/26 10:42:56;;;;;;;28.63;18.95;;;15.60;89.70;;;;;;5115097;28;20098;-67
2022/03/26 10:45:23;;;;;;;27.40;17.58;;;15.80;90.00;;;;;;5116460;28;20023;-65
2022/03/26 10:47:52;;;;;;;24.92;15.60;;;15.90;90.00;;;;;;5115943;28;20035;-66
2022/03/26 10:50:18;;;;;;;26.67;15.48;;;16.10;89.00;;;;;;5116262;28;20129;-66
2022/03/26 10:52:44;;;;;;;25.15;14.95;;;16.10;87.80;;;;;;5116763;28;20479;-66
2022/03/26 10:55:15;;;;;;;27.42;17.02;;;16.30;87.80;;;;;;5116726;28;20097;-63
2022/03/26 10:57:45;;;;;;;24.55;16.65;;;16.30;87.20;;;;;;5116744;28;20015;-66
2022/03/26 11:00:13;;;;;;;25.85;16.13;;;16.40;87.80;;;;;;5116695;28;20023;-66
2022/03/26 11:02:41;;;;;;;27.90;16.58;;;16.40;87.10;;;;;;5116948;28;20050;-66
2022/03/26 11:05:07;;;;;;;25.58;16.45;;;16.40;87.40;;;;;;5116090;28;20181;-66
2022/03/26 11:07:36;;;;;;;27.55;16.52;;;16.40;86.70;;;;;;5116208;28;20115;-65
2022/03/26 11:10:05;;;;;;;25.17;16.90;;;16.50;86.10;;;;;;5097387;28;20544;-66
2022/03/26 11:12:33;;;;;;;25.85;16.08;;;16.80;84.20;;;;;;5116702;28;20022;-66
2022/03/26 11:15:02;;;;;;;26.45;16.88;;;17.60;82.30;;;;;;5115711;28;20031;-66
2022/03/26 11:17:49;;;;;;;27.17;16.80;;;18.60;80.20;;;;;;5116246;28;20452;-66
2022/03/26 11:20:19;;;;;;;25.30;16.83;;;19.40;77.50;;;;;;5097363;28;20024;-66
2022/03/26 11:23:05;;;;;;;29.48;18.13;;;20.00;76.00;;;;;;5116250;28;20046;-66
2022/03/26 11:25:50;;;;;;;30.08;18.50;;;20.70;73.80;;;;;;5115724;28;20039;-66
2022/03/26 11:28:48;;;;;;;27.52;17.83;;;21.20;70.00;;;;;;5116262;28;20039;-66
2022/03/26 11:31:55;;;;;;;29.60;18.50;;;21.30;71.00;;;;;;5099781;28;20042;-65
2022/03/26 11:34:21;;;;;;;27.75;18.48;;;22.10;68.60;;;;;;5053117;28;20043;-66
2022/03/26 11:36:50;;;;;;;26.20;19.10;;;22.40;66.20;;;;;;5098029;28;20053;-65
2022/03/26 11:39:18;;;;;;;28.05;19.42;;;22.50;65.20;;;;;;5115561;28;20149;-63
2022/03/26 11:41:44;;;;;;;28.60;17.58;;;23.20;63.70;;;;;;5097313;28;20027;-64
2022/03/26 11:44:12;;;;;;;26.60;19.27;;;23.80;62.60;;;;;;5114885;28;20084;-64
2022/03/26 11:52:32;;;;;;;29.02;21.02;;;24.20;58.30;;;;;;5115153;28;20099;-66
2022/03/26 11:55:07;;;;;;;26.33;19.40;;;24.40;58.40;;;;;;5114182;28;20041;-66
2022/03/26 11:57:32;;;;;;;26.48;20.10;;;24.50;57.30;;;;;;5115365;28;20054;-66
2022/03/26 11:59:59;;;;;;;27.73;20.65;;;24.80;57.30;;;;;;5115078;28;20024;-66
2022/03/26 12:02:37;;;;;;;27.15;18.63;;;24.60;55.90;;;;;;5114941;28;20032;-65
2022/03/26 12:08:13;;;;;;;25.20;18.63;;;24.40;55.60;;;;;;5114722;28;20117;-70
2022/03/26 12:10:39;;;;;;;29.03;20.37;;;24.80;55.10;;;;;;5095864;28;20038;-66
2022/03/26 12:13:05;;;;;;;26.70;19.90;;;25.30;54.70;;;;;;5113861;28;20023;-66
2022/03/26 12:15:35;;;;;;;28.95;20.75;;;26.00;53.50;;;;;;5114112;28;20103;-64
2022/03/26 12:18:13;;;;;;;28.70;20.55;;;26.20;52.40;;;;;;5114323;28;20028;-65
2022/03/26 12:20:47;;;;;;;26.33;19.50;;;26.10;52.50;;;;;;5113833;28;20030;-64
2022/03/26 12:23:19;;;;;;;26.50;19.77;;;26.60;51.40;;;;;;5095445;28;20051;-63
2022/03/26 12:25:46;;;;;;;30.15;21.33;;;26.60;51.50;;;;;;5113987;28;20099;-64
2022/03/26 12:28:14;;;;;;;26.13;19.55;;;26.70;51.00;;;;;;5095968;28;20469;-65
2022/03/26 12:30:47;;;;;;;26.70;18.98;;;26.10;51.70;;;;;;5113964;28;20055;-66
2022/03/26 12:33:13;;;;;;;25.45;20.27;;;26.60;52.20;;;;;;5113924;28;20105;-65
2022/03/26 12:35:39;;;;;;;24.95;18.70;;;26.70;51.40;;;;;;5114017;28;20024;-64
2022/03/26 12:38:07;;;;;;;25.63;19.33;;;26.60;50.10;;;;;;5114483;28;20027;-66
2022/03/26 12:40:34;;;;;;;24.15;18.92;;;26.00;50.20;;;;;;5113566;28;20024;-65
2022/03/26 12:43:00;;;;;;;25.90;19.70;;;25.80;50.30;;;;;;5113807;28;20153;-66
2022/03/26 12:45:28;;;;;;;27.90;20.17;;;26.30;50.20;;;;;;5128792;27;20061;-66